Portada
METAR-TAF:

METAR-TAF

Aeroports :

Nouakchott, Mauritània

latitud: 18-18-36N, longitud: 015-58-11W, altitud: 3 m

Observació

L'informe es va fer fa 17 minuts, a les 08:00 UTC
Vent 4 kt del Nord
Temperatura 17°C
Humitat 94%
Pressió 1015 hPa
Visibilitat 10 km o més
sense núvols per sota de 1500 mi sense presència de cumulonimbus.

METAR: GQNO 210800Z 36004KT CAVOK 17/16 Q1015 NOSIG

Hora: 08:17 (08:17 UTC)

Pronòstic

L'informe es va fer fa 3 hores i 17 minuts, a les 05:00 UTC
Pronòstic vàlid del 21 a les 06 UTC al 22 a les 12 UTC
Vent 10 kt del Nord/Nord-Oest
Visibilitat: 7000 m
Probabilitat 40% :
Temporalment
l' 21 a les 06 UTC al 21 a les 08 UTC
Cel ennuvolat a una alçada de 800 ft
Temporalment
l' 21 a les 10 UTC al 21 a les 14 UTC
Vent 10 kt del Nord-Est

TAF: GQNO 210500Z 2106/2212 34010KT 7000 NSC PROB40 TEMPO 2106/2108 BKN008 TEMPO 2110/2114 04010KT

Observacions i pronòstics meteorològics de més de 4000 aeroports (METAR i TAF).

Les estacions disponibles són els punts grocs i vermells al mapa.

Posi el ratolí al punt desitjat per veure el nom de l'estació.

Feu clic per veure les observacions i els pronòstics meteorològics.

Per canviar el mapa: feu clic els botons verds amb una creu de color negre per apropar; al botó verd amb un guió per allunyar la imatge; o en les fletxes verdes per a mapes adjacents.


METAR-TAF: